OOCL Atlanta — VRAR6 — position and weather

sailwx.info

Track history (hours):
 
Tides and Currents Weather Stations Pressure Air Temp Water Temp Dewpoint Dewpoint Depression Visibility Wind Speed Wind Dir Waves Ship Positions

OOCL Atlanta

Last reported at 2018-Apr-15 02:52 UTC. Time now 2018-Apr-21 04:09 UTC.
Position N 23°03' E 117°16'.

Length 323 m; beam 42.8 m; draft 14.5 m.

Type: Cargo ship. MMSI: 477920300.

Date/timePositionNaut miles runAvg speedWind from/ knotsBaromVisibWave heightAir tempDewpointWater temp
2018-Apr-15 02:52N 23°03' E 117°16'1420.2
2018-Apr-15 02:12N 23°12' E 117°27'419.9
2018-Apr-15 02:00N 23°14' E 117°31'1019.9
2018-Apr-15 01:30N 23°21' E 117°38'1019.7
2018-Apr-15 01:00N 23°30' E 117°44'1019.7
2018-Apr-15 00:30N 23°37' E 117°51'1019.6
2018-Apr-15 00:00N 23°45' E 117°58'1020.0
2018-Apr-14 23:30N 23°51' E 118°07'1020.2
2018-Apr-14 23:00N 23°58' E 118°14'919.2
2018-Apr-14 22:30N 24°07' E 118°18'918.4
2018-Apr-14 22:00N 24°16' E 118°15'917.3
2018-Apr-14 21:30N 24°22' E 118°08'611.8
2018-Apr-14 21:00N 24°26' E 118°03'4 9.0
2018-Apr-14 20:30N 24°30' E 118°04'1 1.0
2018-Apr-14 19:58N 24°31' E 118°05'0 0.0
2018-Apr-14 19:28N 24°31' E 118°05'0 0.0
2018-Apr-14 18:58N 24°31' E 118°05'0 0.0
2018-Apr-14 18:28N 24°31' E 118°05'0 0.0
2018-Apr-14 17:58N 24°31' E 118°05'0 0.0
2018-Apr-14 17:28N 24°31' E 118°05'0 0.0
2018-Apr-14 16:58N 24°31' E 118°05'0 0.0
2018-Apr-14 16:28N 24°31' E 118°05'0 0.0
2018-Apr-14 15:58N 24°31' E 118°05'0 0.0
2018-Apr-14 15:28N 24°31' E 118°05'0 0.0
2018-Apr-14 14:58N 24°31' E 118°05'0 0.0
2018-Apr-14 14:28N 24°31' E 118°05'0 0.0
2018-Apr-14 13:58N 24°31' E 118°05'0 0.0
2018-Apr-14 13:28N 24°31' E 118°05'0 0.0
2018-Apr-14 12:58N 24°31' E 118°05'0 0.0
2018-Apr-14 12:25N 24°31' E 118°05'0 0.0
2018-Apr-14 11:52N 24°31' E 118°05'0 0.0
2018-Apr-14 11:28N 24°31' E 118°05'0 0.0
2018-Apr-14 10:58N 24°31' E 118°05'0 0.0
2018-Apr-14 10:28N 24°31' E 118°05'0 0.0
2018-Apr-14 09:58N 24°31' E 118°05'0 0.0
2018-Apr-14 09:28N 24°31' E 118°05'1 1.8
2018-Apr-14 09:00N 24°30' E 118°04'4 8.8
2018-Apr-14 08:30N 24°26' E 118°04'712.9
2018-Apr-14 08:00N 24°21' E 118°09'714.1
2018-Apr-14 07:30N 24°16' E 118°14'611.8
2018-Apr-14 07:00N 24°14' E 118°21'1 1.1
2018-Apr-14 06:30N 24°15' E 118°20'1 1.0
2018-Apr-14 06:00N 24°14' E 118°20'510.3
2018-Apr-14 05:30N 24°14' E 118°26'510.8
2018-Apr-14 05:00N 24°15' E 118°31'5 9.1
2018-Apr-14 04:29N 24°16' E 118°37'0 0.4
2018-Apr-14 03:59N 24°16' E 118°36'0 0.4
2018-Apr-14 03:30N 24°15' E 118°36'0 0.5
2018-Apr-14 02:58N 24°16' E 118°36'0 0.6
2018-Apr-14 02:30N 24°16' E 118°36'0 0.4
2018-Apr-14 01:59N 24°15' E 118°35'0 0.5
2018-Apr-14 01:30N 24°15' E 118°35'1 1.3
2018-Apr-14 01:00N 24°15' E 118°36'3 5.7
2018-Apr-14 00:30N 24°18' E 118°38'3 6.4
2018-Apr-14 00:00N 24°19' E 118°41'3 6.3
2018-Apr-13 23:30N 24°22' E 118°43'510.2
2018-Apr-13 23:00N 24°24' E 118°48'5 9.7
2018-Apr-13 22:28N 24°27' E 118°53'20 9.5
2018-Apr-13 20:21N 24°38' E 119°12'76 9.6
2018-Apr-13 12:25N 25°30' E 120°12'35213.1
2018-Apr-12 09:32N 30°49' E 123°00'011.3
2018-Apr-12 09:30N 30°49' E 123°00'812.3
2018-Apr-12 08:53N 30°56' E 122°58'513.5
2018-Apr-12 08:29N 30°60' E 122°53'713.4
2018-Apr-12 07:59N 31°03' E 122°46'814.8
2018-Apr-12 07:27N 31°05' E 122°37'912.7
2018-Apr-12 06:44N 31°06' E 122°27'310.8
2018-Apr-12 06:24N 31°06' E 122°23'613.6
2018-Apr-12 05:56N 31°08' E 122°15'711.1
2018-Apr-12 05:20N 31°12' E 122°09'412.0
2018-Apr-12 04:58N 31°14' E 122°05'612.8
2018-Apr-12 04:30N 31°15' E 121°58'611.2
2018-Apr-12 03:57N 31°16' E 121°51'512.4
2018-Apr-12 03:31N 31°19' E 121°45'9 9.0
2018-Apr-12 02:29N 31°23' E 121°35'0 0.0
2018-Apr-11 16:28N 31°23' E 121°35'0 0.0
2018-Apr-11 15:58N 31°23' E 121°35'0 0.0
2018-Apr-11 15:28N 31°23' E 121°35'0 0.0
2018-Apr-11 14:58N 31°23' E 121°35'0 0.0
2018-Apr-11 13:46N 31°23' E 121°35'0 0.0
2018-Apr-11 12:52N 31°23' E 121°35'0 0.0
2018-Apr-11 12:28N 31°23' E 121°35'0 0.0
2018-Apr-11 11:16N 31°23' E 121°35'0 0.0
2018-Apr-11 10:58N 31°23' E 121°35'0 0.0
2018-Apr-11 02:34N 31°23' E 121°35'0 0.5
2018-Apr-11 02:28N 31°23' E 121°35'0 0.8
2018-Apr-11 01:58N 31°23' E 121°35'0 0.3
2018-Apr-11 01:27N 31°23' E 121°34'0 0.8
2018-Apr-11 01:00N 31°23' E 121°35'4 8.0
2018-Apr-11 00:29N 31°21' E 121°39'4 8.3
2018-Apr-10 23:59N 31°19' E 121°43'610.5
2018-Apr-10 23:27N 31°17' E 121°49'40 9.6
2018-Apr-10 19:16N 31°07' E 122°34'310.1
2018-Apr-10 18:58N 31°07' E 122°38'510.0
2018-Apr-10 18:30N 31°05' E 122°43'510.0
2018-Apr-10 17:57N 31°02' E 122°48'60 6.2
2018-Apr-10 08:21N 30°21' E 123°38'16 1.9
2018-Apr-09 23:43N 30°06' E 123°28'  
2018-Apr-06 17:06N 23°31' E 118°09'1112.9
2018-Apr-06 16:16N 23°24' E 118°00'412.0
2018-Apr-06 15:56N 23°21' E 117°57'711.8
2018-Apr-06 15:21N 23°19' E 117°50'411.4
2018-Apr-06 15:00N 23°17' E 117°46'611.8
2018-Apr-06 14:30N 23°14' E 117°40'711.4
2018-Apr-06 13:54N 23°11' E 117°33'411.2
2018-Apr-06 13:30N 23°09' E 117°29'  
Track history (hours):
 
Tides and Currents Weather Stations Pressure Air Temp Water Temp Dewpoint Dewpoint Depression Visibility Wind Speed Wind Dir Waves Ship Positions

OOCL Atlanta

Last reported at 2018-Apr-15 02:52 UTC. Time now 2018-Apr-21 04:09 UTC.
Position N 23°03' E 117°16'.

Length 323 m; beam 42.8 m; draft 14.5 m.

Type: Cargo ship. MMSI: 477920300.

Date/timePositionNaut miles runAvg speedWind from/ knotsBaromVisibWave heightAir tempDewpointWater temp
2018-Apr-15 02:52N 23°03' E 117°16'1420.2
2018-Apr-15 02:12N 23°12' E 117°27'419.9
2018-Apr-15 02:00N 23°14' E 117°31'1019.9
2018-Apr-15 01:30N 23°21' E 117°38'1019.7
2018-Apr-15 01:00N 23°30' E 117°44'1019.7
2018-Apr-15 00:30N 23°37' E 117°51'1019.6
2018-Apr-15 00:00N 23°45' E 117°58'1020.0
2018-Apr-14 23:30N 23°51' E 118°07'1020.2
2018-Apr-14 23:00N 23°58' E 118°14'919.2
2018-Apr-14 22:30N 24°07' E 118°18'918.4
2018-Apr-14 22:00N 24°16' E 118°15'917.3
2018-Apr-14 21:30N 24°22' E 118°08'611.8
2018-Apr-14 21:00N 24°26' E 118°03'4 9.0
2018-Apr-14 20:30N 24°30' E 118°04'1 1.0
2018-Apr-14 19:58N 24°31' E 118°05'0 0.0
2018-Apr-14 19:28N 24°31' E 118°05'0 0.0
2018-Apr-14 18:58N 24°31' E 118°05'0 0.0
2018-Apr-14 18:28N 24°31' E 118°05'0 0.0
2018-Apr-14 17:58N 24°31' E 118°05'0 0.0
2018-Apr-14 17:28N 24°31' E 118°05'0 0.0
2018-Apr-14 16:58N 24°31' E 118°05'0 0.0
2018-Apr-14 16:28N 24°31' E 118°05'0 0.0
2018-Apr-14 15:58N 24°31' E 118°05'0 0.0
2018-Apr-14 15:28N 24°31' E 118°05'0 0.0
2018-Apr-14 14:58N 24°31' E 118°05'0 0.0
2018-Apr-14 14:28N 24°31' E 118°05'0 0.0
2018-Apr-14 13:58N 24°31' E 118°05'0 0.0
2018-Apr-14 13:28N 24°31' E 118°05'0 0.0
2018-Apr-14 12:58N 24°31' E 118°05'0 0.0
2018-Apr-14 12:25N 24°31' E 118°05'0 0.0
2018-Apr-14 11:52N 24°31' E 118°05'0 0.0
2018-Apr-14 11:28N 24°31' E 118°05'0 0.0
2018-Apr-14 10:58N 24°31' E 118°05'0 0.0
2018-Apr-14 10:28N 24°31' E 118°05'0 0.0
2018-Apr-14 09:58N 24°31' E 118°05'0 0.0
2018-Apr-14 09:28N 24°31' E 118°05'1 1.8
2018-Apr-14 09:00N 24°30' E 118°04'4 8.8
2018-Apr-14 08:30N 24°26' E 118°04'712.9
2018-Apr-14 08:00N 24°21' E 118°09'714.1
2018-Apr-14 07:30N 24°16' E 118°14'611.8
2018-Apr-14 07:00N 24°14' E 118°21'1 1.1
2018-Apr-14 06:30N 24°15' E 118°20'1 1.0
2018-Apr-14 06:00N 24°14' E 118°20'510.3
2018-Apr-14 05:30N 24°14' E 118°26'510.8
2018-Apr-14 05:00N 24°15' E 118°31'5 9.1
2018-Apr-14 04:29N 24°16' E 118°37'0 0.4
2018-Apr-14 03:59N 24°16' E 118°36'0 0.4
2018-Apr-14 03:30N 24°15' E 118°36'0 0.5
2018-Apr-14 02:58N 24°16' E 118°36'0 0.6
2018-Apr-14 02:30N 24°16' E 118°36'0 0.4
2018-Apr-14 01:59N 24°15' E 118°35'0 0.5
2018-Apr-14 01:30N 24°15' E 118°35'1 1.3
2018-Apr-14 01:00N 24°15' E 118°36'3 5.7
2018-Apr-14 00:30N 24°18' E 118°38'3 6.4
2018-Apr-14 00:00N 24°19' E 118°41'3 6.3
2018-Apr-13 23:30N 24°22' E 118°43'510.2
2018-Apr-13 23:00N 24°24' E 118°48'5 9.7
2018-Apr-13 22:28N 24°27' E 118°53'20 9.5
2018-Apr-13 20:21N 24°38' E 119°12'76 9.6
2018-Apr-13 12:25N 25°30' E 120°12'35213.1
2018-Apr-12 09:32N 30°49' E 123°00'011.3
2018-Apr-12 09:30N 30°49' E 123°00'812.3
2018-Apr-12 08:53N 30°56' E 122°58'513.5
2018-Apr-12 08:29N 30°60' E 122°53'713.4
2018-Apr-12 07:59N 31°03' E 122°46'814.8
2018-Apr-12 07:27N 31°05' E 122°37'912.7
2018-Apr-12 06:44N 31°06' E 122°27'310.8
2018-Apr-12 06:24N 31°06' E 122°23'613.6
2018-Apr-12 05:56N 31°08' E 122°15'711.1
2018-Apr-12 05:20N 31°12' E 122°09'412.0
2018-Apr-12 04:58N 31°14' E 122°05'612.8
2018-Apr-12 04:30N 31°15' E 121°58'611.2
2018-Apr-12 03:57N 31°16' E 121°51'512.4
2018-Apr-12 03:31N 31°19' E 121°45'9 9.0
2018-Apr-12 02:29N 31°23' E 121°35'0 0.0
2018-Apr-11 16:28N 31°23' E 121°35'0 0.0
2018-Apr-11 15:58N 31°23' E 121°35'0 0.0
2018-Apr-11 15:28N 31°23' E 121°35'0 0.0
2018-Apr-11 14:58N 31°23' E 121°35'0 0.0
2018-Apr-11 13:46N 31°23' E 121°35'0 0.0
2018-Apr-11 12:52N 31°23' E 121°35'0 0.0
2018-Apr-11 12:28N 31°23' E 121°35'0 0.0
2018-Apr-11 11:16N 31°23' E 121°35'0 0.0
2018-Apr-11 10:58N 31°23' E 121°35'0 0.0
2018-Apr-11 02:34N 31°23' E 121°35'0 0.5
2018-Apr-11 02:28N 31°23' E 121°35'0 0.8
2018-Apr-11 01:58N 31°23' E 121°35'0 0.3
2018-Apr-11 01:27N 31°23' E 121°34'0 0.8
2018-Apr-11 01:00N 31°23' E 121°35'4 8.0
2018-Apr-11 00:29N 31°21' E 121°39'4 8.3
2018-Apr-10 23:59N 31°19' E 121°43'610.5
2018-Apr-10 23:27N 31°17' E 121°49'40 9.6
2018-Apr-10 19:16N 31°07' E 122°34'310.1
2018-Apr-10 18:58N 31°07' E 122°38'510.0
2018-Apr-10 18:30N 31°05' E 122°43'510.0
2018-Apr-10 17:57N 31°02' E 122°48'60 6.2
2018-Apr-10 08:21N 30°21' E 123°38'16 1.9
2018-Apr-09 23:43N 30°06' E 123°28'  
2018-Apr-06 17:06N 23°31' E 118°09'1112.9
2018-Apr-06 16:16N 23°24' E 118°00'412.0
2018-Apr-06 15:56N 23°21' E 117°57'711.8
2018-Apr-06 15:21N 23°19' E 117°50'411.4
2018-Apr-06 15:00N 23°17' E 117°46'611.8
2018-Apr-06 14:30N 23°14' E 117°40'711.4
2018-Apr-06 13:54N 23°11' E 117°33'411.2
2018-Apr-06 13:30N 23°09' E 117°29'  

Dump ship's entire track history